Time;durP1;ratioP1;P1;durP2;ratioP2;P2;SDS_P1;SDS_P2;PMS_P1;PMS_P2;Temp;Humidity;BMP_temperature;BMP_pressure;BME280_temperature;BME280_humidity;BME280_pressure;Samples;Min_cycle;Max_cycle;Signal;HPM_P1;HPM_P2
2023/01/24 00:01:03;;;;;;;15.52;13.82;;;3.70;99.90;;;;;;4942893;29;20266;-73
2023/01/24 00:03:32;;;;;;;15.50;13.90;;;3.80;99.90;;;;;;4952505;29;20204;-72
2023/01/24 00:05:59;;;;;;;15.60;14.00;;;3.80;99.90;;;;;;4952612;29;20213;-73
2023/01/24 00:08:26;;;;;;;15.13;13.57;;;3.80;99.90;;;;;;4951551;28;20197;-73
2023/01/24 00:11:00;;;;;;;17.48;15.68;;;3.80;99.90;;;;;;4950812;29;20291;-74
2023/01/24 00:13:28;;;;;;;15.68;14.05;;;3.80;99.90;;;;;;4951360;28;20232;-74
2023/01/24 00:16:03;;;;;;;15.80;13.68;;;3.80;99.90;;;;;;4943744;28;20309;-74
2023/01/24 00:18:32;;;;;;;16.20;14.50;;;3.80;99.90;;;;;;4950864;29;20203;-73
2023/01/24 00:21:08;;;;;;;16.55;14.77;;;3.80;99.90;;;;;;4946778;28;20215;-74
2023/01/24 00:23:36;;;;;;;16.30;14.35;;;3.80;99.90;;;;;;4941823;29;20295;-74
2023/01/24 00:26:04;;;;;;;16.33;14.73;;;3.80;99.90;;;;;;4945541;29;20561;-74
2023/01/24 00:28:31;;;;;;;16.67;14.90;;;3.80;99.90;;;;;;4952225;28;20200;-73
2023/01/24 00:30:58;;;;;;;16.42;14.68;;;3.80;99.90;;;;;;4943703;29;20216;-73
2023/01/24 00:33:25;;;;;;;16.98;15.18;;;3.80;99.90;;;;;;4950715;29;20621;-73
2023/01/24 00:35:54;;;;;;;18.90;16.38;;;3.80;99.90;;;;;;4951260;29;20259;-73
2023/01/24 00:38:22;;;;;;;18.88;15.85;;;3.80;99.90;;;;;;4948590;29;20294;-73
2023/01/24 00:40:49;;;;;;;18.85;16.85;;;3.80;99.90;;;;;;4952016;28;20530;-73
2023/01/24 00:43:17;;;;;;;19.45;16.65;;;3.80;99.90;;;;;;4939123;28;20209;-73
2023/01/24 00:45:45;;;;;;;18.25;16.35;;;3.70;99.90;;;;;;4945254;29;20283;-73
2023/01/24 00:48:13;;;;;;;17.77;15.77;;;3.70;99.90;;;;;;4938021;29;20205;-73
2023/01/24 00:50:41;;;;;;;19.10;16.60;;;3.70;99.90;;;;;;4942857;29;20207;-73
2023/01/24 00:53:09;;;;;;;19.30;16.80;;;3.70;99.90;;;;;;4943869;29;20802;-73
2023/01/24 00:55:42;;;;;;;18.35;16.40;;;3.60;99.90;;;;;;4951017;29;20710;-73
2023/01/24 00:58:09;;;;;;;20.02;16.50;;;3.60;99.90;;;;;;4945548;29;20251;-73
2023/01/24 01:00:36;;;;;;;18.83;16.60;;;3.60;99.90;;;;;;4944706;29;20292;-73
2023/01/24 01:03:04;;;;;;;20.20;16.75;;;3.60;99.90;;;;;;4951093;29;20211;-73
2023/01/24 01:05:31;;;;;;;17.98;15.73;;;3.60;99.90;;;;;;4950296;29;20231;-74
2023/01/24 01:07:58;;;;;;;19.02;16.52;;;3.60;99.90;;;;;;4949272;29;20572;-73
2023/01/24 01:10:27;;;;;;;18.50;15.73;;;3.60;99.90;;;;;;4943616;29;20209;-74
2023/01/24 01:12:54;;;;;;;18.15;16.13;;;3.60;99.90;;;;;;4949360;29;20220;-73
2023/01/24 01:15:21;;;;;;;20.90;17.23;;;3.60;99.90;;;;;;4949974;29;20224;-73
2023/01/24 01:17:48;;;;;;;19.65;17.60;;;3.60;99.90;;;;;;4952124;28;20214;-73
2023/01/24 01:20:15;;;;;;;20.05;16.60;;;3.60;99.90;;;;;;4941097;28;20295;-74
2023/01/24 01:22:42;;;;;;;18.65;16.65;;;3.60;99.90;;;;;;4937653;29;20208;-73
2023/01/24 01:25:09;;;;;;;19.35;16.23;;;3.60;99.90;;;;;;4944863;29;20324;-74
2023/01/24 01:27:38;;;;;;;18.63;16.60;;;3.60;99.90;;;;;;4947130;29;20283;-74
2023/01/24 01:30:06;;;;;;;20.90;17.55;;;3.60;99.90;;;;;;4950472;29;20246;-74
2023/01/24 01:32:33;;;;;;;19.70;16.88;;;3.60;99.90;;;;;;4946530;28;20225;-73
2023/01/24 01:35:00;;;;;;;21.50;17.08;;;3.60;99.90;;;;;;4944411;29;20248;-74
2023/01/24 01:37:27;;;;;;;19.08;17.00;;;3.60;99.90;;;;;;4949904;29;20207;-73
2023/01/24 01:39:54;;;;;;;17.83;15.93;;;3.60;99.90;;;;;;4949648;29;20649;-74
2023/01/24 01:42:21;;;;;;;19.58;16.58;;;3.60;99.90;;;;;;4946207;29;20208;-74
2023/01/24 01:44:54;;;;;;;19.35;17.27;;;3.60;99.90;;;;;;4951095;28;20224;-74
2023/01/24 01:47:26;;;;;;;20.00;16.73;;;3.60;99.90;;;;;;4950179;28;20197;-73
2023/01/24 01:50:01;;;;;;;19.10;16.98;;;3.70;99.90;;;;;;4950682;28;20230;-73
2023/01/24 01:52:32;;;;;;;18.95;15.93;;;3.60;99.90;;;;;;4946001;29;20665;-74
2023/01/24 01:55:05;;;;;;;20.73;17.17;;;3.60;99.90;;;;;;4951071;28;20224;-73
2023/01/24 01:57:34;;;;;;;19.45;15.63;;;3.60;99.90;;;;;;4948715;28;20209;-73
2023/01/24 02:00:08;;;;;;;17.83;15.68;;;3.50;99.90;;;;;;4949019;28;20623;-73
2023/01/24 02:02:36;;;;;;;17.77;15.45;;;3.50;99.90;;;;;;4949548;29;20228;-74
2023/01/24 02:05:07;;;;;;;18.17;15.73;;;3.60;99.90;;;;;;4951133;29;20228;-74
2023/01/24 02:07:39;;;;;;;18.33;15.65;;;3.60;99.90;;;;;;4945812;29;20274;-73
2023/01/24 02:10:07;;;;;;;17.70;15.73;;;3.60;99.90;;;;;;4940331;29;20197;-74
2023/01/24 02:12:38;;;;;;;18.75;16.48;;;3.70;99.90;;;;;;4950164;28;20470;-73
2023/01/24 02:17:55;;;;;;;18.00;15.75;;;3.70;99.90;;;;;;4946850;28;20287;-73
2023/01/24 02:20:32;;;;;;;17.63;15.38;;;3.70;99.90;;;;;;4946868;29;20658;-74
2023/01/24 02:23:12;;;;;;;20.30;16.38;;;3.70;99.90;;;;;;4947730;29;20207;-71
2023/01/24 02:25:43;;;;;;;18.00;15.65;;;3.70;99.90;;;;;;4949213;28;20204;-72
2023/01/24 02:28:12;;;;;;;18.30;15.05;;;3.70;99.90;;;;;;4942265;29;20250;-72
2023/01/24 02:30:39;;;;;;;18.30;15.63;;;3.70;99.90;;;;;;4935455;29;20304;-72
2023/01/24 02:33:15;;;;;;;19.00;15.35;;;3.70;99.90;;;;;;4945985;29;20620;-72
2023/01/24 02:35:43;;;;;;;18.20;16.23;;;3.70;99.90;;;;;;4946827;29;21296;-72
2023/01/24 02:38:17;;;;;;;19.27;16.65;;;3.70;99.90;;;;;;4945974;29;20208;-73
2023/01/24 02:40:45;;;;;;;17.98;15.98;;;3.70;99.90;;;;;;4943938;29;20193;-73
2023/01/24 02:43:16;;;;;;;17.20;15.18;;;3.70;99.90;;;;;;4941826;28;20209;-72
2023/01/24 02:45:43;;;;;;;19.10;15.38;;;3.70;99.90;;;;;;4942783;28;20197;-74
2023/01/24 02:48:10;;;;;;;18.08;15.63;;;3.70;99.90;;;;;;4934476;29;20243;-73
2023/01/24 02:53:30;;;;;;;18.80;16.30;;;3.70;99.90;;;;;;4943805;29;20328;-73
2023/01/24 02:58:43;;;;;;;16.20;14.50;;;3.70;99.90;;;;;;4949585;29;20770;-74
2023/01/24 03:01:10;;;;;;;17.50;15.50;;;3.60;99.90;;;;;;4953412;29;20676;-72
2023/01/24 03:03:38;;;;;;;18.00;15.10;;;3.70;99.90;;;;;;4945454;29;20687;-72
2023/01/24 03:06:05;;;;;;;19.88;16.73;;;3.60;99.90;;;;;;4938053;29;20205;-72
2023/01/24 03:08:34;;;;;;;17.10;15.30;;;3.60;99.90;;;;;;4941702;29;20285;-72
2023/01/24 03:11:01;;;;;;;16.73;14.50;;;3.60;99.90;;;;;;4948017;29;20559;-72
2023/01/24 03:35:33;;;;;;;18.30;15.18;;;3.60;99.90;;;;;;4938858;29;20262;-73
2023/01/24 03:40:45;;;;;;;16.58;14.70;;;3.70;99.90;;;;;;4948135;29;20663;-72
2023/01/24 03:43:12;;;;;;;17.75;15.27;;;3.70;99.90;;;;;;4952436;29;20206;-72
2023/01/24 03:45:40;;;;;;;17.58;15.55;;;3.70;99.90;;;;;;4950936;29;20209;-72
2023/01/24 03:48:12;;;;;;;16.27;14.35;;;3.70;99.90;;;;;;4944183;29;20203;-73
2023/01/24 03:53:28;;;;;;;20.23;16.38;;;3.70;99.90;;;;;;4941865;29;20308;-73
2023/01/24 03:55:57;;;;;;;19.92;15.32;;;3.70;99.90;;;;;;4939978;28;20188;-73
2023/01/24 03:58:25;;;;;;;17.80;15.90;;;3.70;99.90;;;;;;4951393;29;20290;-73
2023/01/24 04:00:53;;;;;;;19.02;16.80;;;3.70;99.90;;;;;;4948157;28;22114;-72
2023/01/24 04:03:21;;;;;;;19.98;16.13;;;3.60;99.90;;;;;;4951214;29;20644;-72
2023/01/24 04:05:48;;;;;;;19.77;15.57;;;3.60;99.90;;;;;;4952970;29;20291;-72
2023/01/24 04:08:16;;;;;;;17.58;15.48;;;3.60;99.90;;;;;;4947771;28;20195;-73
2023/01/24 04:10:44;;;;;;;18.63;16.20;;;3.60;99.90;;;;;;4941902;29;20204;-72
2023/01/24 04:13:11;;;;;;;21.27;16.60;;;3.60;99.90;;;;;;4942855;29;20197;-73
2023/01/24 04:15:39;;;;;;;18.77;15.82;;;3.60;99.90;;;;;;4935175;29;20634;-72
2023/01/24 04:18:06;;;;;;;19.00;16.85;;;3.60;99.90;;;;;;4940046;29;20231;-72
2023/01/24 04:20:36;;;;;;;20.67;17.17;;;3.60;99.90;;;;;;4941625;29;20216;-73
2023/01/24 04:23:05;;;;;;;19.75;16.52;;;3.60;99.90;;;;;;4948400;29;20204;-72
2023/01/24 04:25:33;;;;;;;20.85;18.13;;;3.50;99.90;;;;;;4946724;29;20810;-72
2023/01/24 04:28:00;;;;;;;19.90;16.17;;;3.50;99.90;;;;;;4947729;29;20275;-72
2023/01/24 04:30:27;;;;;;;21.95;17.80;;;3.50;99.90;;;;;;4938082;29;20203;-72
2023/01/24 04:32:55;;;;;;;20.42;16.63;;;3.50;99.90;;;;;;4943275;29;20703;-72
2023/01/24 04:35:24;;;;;;;19.83;16.98;;;3.40;99.90;;;;;;4948735;29;20726;-72
2023/01/24 04:37:53;;;;;;;19.65;16.10;;;3.40;99.90;;;;;;4948639;29;20618;-73
2023/01/24 04:40:20;;;;;;;21.00;16.95;;;3.40;99.90;;;;;;4942058;29;20196;-73
2023/01/24 04:42:47;;;;;;;19.92;17.25;;;3.40;99.90;;;;;;4948777;29;20195;-72
2023/01/24 04:45:15;;;;;;;21.10;16.50;;;3.30;99.90;;;;;;4950273;29;20203;-73
2023/01/24 04:47:42;;;;;;;20.95;17.80;;;3.30;99.90;;;;;;4949166;29;20217;-72
2023/01/24 04:50:10;;;;;;;21.25;17.77;;;3.30;99.90;;;;;;4949911;29;20282;-72
2023/01/24 04:52:37;;;;;;;20.77;16.55;;;3.30;99.90;;;;;;4947837;29;20208;-73
2023/01/24 04:55:06;;;;;;;23.83;17.83;;;3.30;99.90;;;;;;4951180;29;20319;-72
2023/01/24 04:57:33;;;;;;;21.48;17.85;;;3.30;99.90;;;;;;4943635;29;22344;-73
2023/01/24 05:00:00;;;;;;;20.10;17.05;;;3.30;99.90;;;;;;4948967;29;20655;-72
2023/01/24 05:02:27;;;;;;;20.50;16.30;;;3.30;99.90;;;;;;4939552;29;20228;-72
2023/01/24 05:04:54;;;;;;;21.23;17.25;;;3.30;99.90;;;;;;4942831;29;20219;-75
2023/01/24 05:07:21;;;;;;;21.35;17.23;;;3.30;99.90;;;;;;4949278;28;20214;-74
2023/01/24 05:09:48;;;;;;;20.83;17.13;;;3.30;99.90;;;;;;4947820;28;20203;-74
2023/01/24 05:12:16;;;;;;;23.00;17.52;;;3.30;99.90;;;;;;4944170;29;20671;-74
2023/01/24 05:14:43;;;;;;;21.13;16.70;;;3.40;99.90;;;;;;4933105;29;20235;-71
2023/01/24 05:17:10;;;;;;;23.45;18.48;;;3.40;99.90;;;;;;4947157;29;20199;-74
2023/01/24 05:19:37;;;;;;;23.30;17.63;;;3.30;99.90;;;;;;4944128;28;20332;-73
2023/01/24 05:22:04;;;;;;;21.55;16.50;;;3.30;99.90;;;;;;4939372;29;20287;-73
2023/01/24 05:24:31;;;;;;;22.90;17.50;;;3.30;99.90;;;;;;4950757;29;20738;-74
2023/01/24 05:26:58;;;;;;;22.92;18.27;;;3.30;99.90;;;;;;4951899;29;20195;-73
2023/01/24 05:29:27;;;;;;;22.08;18.20;;;3.20;99.90;;;;;;4939270;29;20219;-73
2023/01/24 05:31:54;;;;;;;23.45;19.08;;;3.30;99.90;;;;;;4949402;28;20298;-73
2023/01/24 05:34:21;;;;;;;23.88;17.80;;;3.30;99.90;;;;;;4937145;28;20232;-73
2023/01/24 05:36:48;;;;;;;22.13;18.38;;;3.20;99.90;;;;;;4956363;28;20210;-72
2023/01/24 05:39:15;;;;;;;21.92;16.42;;;3.30;99.90;;;;;;4952931;28;20286;-72
2023/01/24 05:41:42;;;;;;;22.08;17.58;;;3.30;99.90;;;;;;4931646;28;20222;-72
2023/01/24 05:44:09;;;;;;;22.40;17.90;;;3.30;99.90;;;;;;4937431;28;20230;-73
2023/01/24 05:46:38;;;;;;;24.05;18.27;;;3.30;99.90;;;;;;4936627;28;20199;-73
2023/01/24 05:49:05;;;;;;;22.98;17.63;;;3.30;99.90;;;;;;4938292;28;20213;-72
2023/01/24 05:51:32;;;;;;;20.38;18.00;;;3.30;99.90;;;;;;4943320;28;20207;-73
2023/01/24 05:53:59;;;;;;;22.25;19.05;;;3.30;99.90;;;;;;4944797;28;20234;-73
2023/01/24 05:56:27;;;;;;;20.48;17.80;;;3.40;99.90;;;;;;4945833;28;20560;-76
2023/01/24 05:58:54;;;;;;;22.80;18.50;;;3.40;99.90;;;;;;4940805;28;20195;-72
2023/01/24 06:01:22;;;;;;;20.58;16.90;;;3.40;99.90;;;;;;4944875;28;20204;-72
2023/01/24 06:03:52;;;;;;;21.70;18.55;;;3.40;99.90;;;;;;4951951;28;20317;-71
2023/01/24 06:06:21;;;;;;;20.73;17.60;;;3.40;99.90;;;;;;4947108;28;20262;-72
2023/01/24 06:08:48;;;;;;;20.77;18.00;;;3.40;99.90;;;;;;4938803;28;20197;-72
2023/01/24 06:11:17;;;;;;;21.88;19.20;;;3.40;99.90;;;;;;4944673;28;20385;-71
2023/01/24 06:13:45;;;;;;;20.95;18.02;;;3.40;99.90;;;;;;4944064;28;20920;-72
2023/01/24 06:16:14;;;;;;;23.13;17.67;;;3.40;99.90;;;;;;4945803;28;20200;-70
2023/01/24 06:18:42;;;;;;;20.80;17.45;;;3.50;99.90;;;;;;4948280;28;20238;-71
2023/01/24 06:21:44;;;;;;;24.08;18.92;;;3.40;99.90;;;;;;4946588;28;20205;-70
2023/01/24 06:24:16;;;;;;;21.52;16.85;;;3.40;99.90;;;;;;4949735;28;20704;-71
2023/01/24 06:26:44;;;;;;;22.75;17.05;;;3.50;99.90;;;;;;4948827;28;20250;-70
2023/01/24 06:29:12;;;;;;;20.73;16.80;;;3.40;99.90;;;;;;4951761;28;20206;-71
2023/01/24 06:31:48;;;;;;;24.23;17.35;;;3.40;99.90;;;;;;4947162;28;20201;-71
2023/01/24 06:34:26;;;;;;;21.05;17.25;;;3.40;99.90;;;;;;4944254;28;20238;-71
2023/01/24 06:37:06;;;;;;;20.65;17.15;;;3.40;99.90;;;;;;4944637;28;20282;-71
2023/01/24 06:39:34;;;;;;;20.83;17.58;;;3.40;99.90;;;;;;4947339;28;20208;-71
2023/01/24 06:42:02;;;;;;;22.08;19.08;;;3.50;99.90;;;;;;4949104;28;20299;-71
2023/01/24 06:44:29;;;;;;;21.75;18.23;;;3.50;99.90;;;;;;4952818;28;20229;-71
2023/01/24 06:46:56;;;;;;;22.10;17.83;;;3.50;99.90;;;;;;4950657;28;20199;-71
2023/01/24 06:49:23;;;;;;;22.40;16.73;;;3.50;99.90;;;;;;4944961;28;20548;-71
2023/01/24 06:51:51;;;;;;;20.83;16.90;;;3.50;99.90;;;;;;4949649;28;20209;-72
2023/01/24 06:54:19;;;;;;;22.10;17.67;;;3.50;99.90;;;;;;4948973;28;20233;-72
2023/01/24 06:56:46;;;;;;;20.27;17.40;;;3.50;99.90;;;;;;4967072;28;20196;-72
2023/01/24 06:59:13;;;;;;;19.58;16.60;;;3.50;99.90;;;;;;4958403;28;20199;-72
2023/01/24 07:01:40;;;;;;;23.77;19.80;;;3.50;99.90;;;;;;4948602;28;21872;-72
2023/01/24 07:04:07;;;;;;;19.85;16.90;;;3.50;99.90;;;;;;4947289;28;20306;-72
2023/01/24 07:06:34;;;;;;;23.05;19.50;;;3.60;99.90;;;;;;4952658;28;20291;-72
2023/01/24 07:09:01;;;;;;;22.85;18.80;;;3.60;99.90;;;;;;4953172;28;20246;-72
2023/01/24 07:11:29;;;;;;;21.83;17.10;;;3.60;99.90;;;;;;4948377;28;20623;-72
2023/01/24 07:13:56;;;;;;;22.60;19.10;;;3.50;99.90;;;;;;4947084;28;20278;-72
2023/01/24 07:16:24;;;;;;;22.75;19.58;;;3.50;99.90;;;;;;4950587;28;20634;-72
2023/01/24 07:18:51;;;;;;;20.35;17.30;;;3.50;99.90;;;;;;4936942;28;20280;-72
2023/01/24 07:21:19;;;;;;;20.80;17.60;;;3.60;99.90;;;;;;4943089;28;20291;-71
2023/01/24 07:23:48;;;;;;;21.00;16.95;;;3.80;99.90;;;;;;4950355;28;20265;-71
2023/01/24 07:26:16;;;;;;;20.45;17.52;;;3.60;99.90;;;;;;4947490;28;20302;-72
2023/01/24 07:28:44;;;;;;;19.98;16.40;;;3.60;99.90;;;;;;4941421;28;20226;-72
2023/01/24 07:31:15;;;;;;;27.17;18.50;;;3.60;99.90;;;;;;4942640;28;20250;-72
2023/01/24 07:33:42;;;;;;;21.10;17.27;;;3.60;99.90;;;;;;4949643;28;20317;-72
2023/01/24 07:36:12;;;;;;;22.42;17.90;;;3.60;99.90;;;;;;4938511;28;20699;-72
2023/01/24 07:38:39;;;;;;;21.67;17.35;;;3.60;99.90;;;;;;4946932;28;20205;-72
2023/01/24 07:41:07;;;;;;;22.25;16.30;;;3.60;99.90;;;;;;4945813;28;20216;-72
2023/01/24 07:43:34;;;;;;;21.88;17.30;;;3.60;99.90;;;;;;4946761;28;20217;-72
2023/01/24 07:46:04;;;;;;;21.90;17.73;;;3.60;99.90;;;;;;4944166;28;20214;-72
2023/01/24 07:48:31;;;;;;;20.80;17.00;;;3.60;99.90;;;;;;4947778;28;20672;-71
2023/01/24 07:50:59;;;;;;;22.63;17.25;;;3.70;99.90;;;;;;4939595;28;20200;-72
2023/01/24 07:53:26;;;;;;;21.05;17.85;;;3.70;99.90;;;;;;4945332;28;20258;-72
2023/01/24 07:55:53;;;;;;;21.13;17.30;;;3.70;99.90;;;;;;4947875;28;20592;-71
2023/01/24 07:58:20;;;;;;;23.52;18.23;;;3.70;99.90;;;;;;4950533;28;20211;-72
2023/01/24 08:00:47;;;;;;;19.77;15.70;;;3.70;99.90;;;;;;4943582;28;20200;-71
2023/01/24 08:03:15;;;;;;;20.85;16.13;;;3.70;99.90;;;;;;4946203;28;20219;-71
2023/01/24 08:05:42;;;;;;;22.05;16.60;;;3.70;99.90;;;;;;4946930;28;20200;-71
2023/01/24 08:08:10;;;;;;;20.73;15.88;;;3.70;99.90;;;;;;4948149;28;20287;-71
2023/01/24 08:10:36;;;;;;;21.88;17.60;;;3.70;99.90;;;;;;4945165;28;20199;-69
2023/01/24 08:13:03;;;;;;;21.55;17.02;;;3.70;99.90;;;;;;4947843;28;20664;-70
2023/01/24 08:15:31;;;;;;;21.30;17.20;;;3.70;99.90;;;;;;4941407;28;20266;-72
2023/01/24 08:17:58;;;;;;;20.20;17.23;;;3.70;99.90;;;;;;4943539;28;20279;-72
2023/01/24 08:20:26;;;;;;;21.30;16.70;;;3.80;99.90;;;;;;4947745;28;20550;-71
2023/01/24 08:22:55;;;;;;;20.90;16.42;;;3.70;99.90;;;;;;4952090;28;20220;-71
2023/01/24 08:25:22;;;;;;;21.88;17.80;;;3.80;99.90;;;;;;4948228;28;20216;-71
2023/01/24 08:27:49;;;;;;;21.52;17.10;;;3.80;99.90;;;;;;4947260;28;20204;-72
2023/01/24 08:30:17;;;;;;;21.30;16.50;;;3.80;99.90;;;;;;4942811;28;20200;-71
2023/01/24 08:32:44;;;;;;;19.55;15.65;;;3.80;99.90;;;;;;4949059;28;20226;-71
2023/01/24 08:35:11;;;;;;;18.50;15.38;;;3.80;99.90;;;;;;4945233;28;20236;-71
2023/01/24 08:37:39;;;;;;;18.65;15.57;;;3.80;99.90;;;;;;4939959;28;20210;-71
2023/01/24 08:40:08;;;;;;;18.02;15.95;;;3.80;99.90;;;;;;4950180;28;20203;-72
2023/01/24 08:42:37;;;;;;;18.70;15.88;;;3.90;99.90;;;;;;4945621;28;20254;-72
2023/01/24 08:45:04;;;;;;;20.48;16.17;;;3.90;99.90;;;;;;4946964;28;20250;-72
2023/01/24 08:47:31;;;;;;;17.25;13.98;;;3.80;99.90;;;;;;4951964;28;20232;-72
2023/01/24 08:49:58;;;;;;;21.23;15.60;;;3.80;99.90;;;;;;4945724;28;20196;-72
2023/01/24 08:52:25;;;;;;;21.73;16.10;;;3.80;99.90;;;;;;4952101;28;20278;-72
2023/01/24 08:54:53;;;;;;;21.20;17.55;;;3.80;99.90;;;;;;4944731;28;20578;-73
2023/01/24 08:57:20;;;;;;;21.10;16.90;;;3.90;99.90;;;;;;4947115;28;20230;-72
2023/01/24 08:59:47;;;;;;;17.83;15.70;;;3.90;99.90;;;;;;4941308;28;20236;-72
2023/01/24 09:02:16;;;;;;;19.35;16.75;;;3.90;99.90;;;;;;4945202;28;20217;-72
2023/01/24 09:04:43;;;;;;;18.88;15.55;;;3.90;99.90;;;;;;4942602;28;20228;-71
2023/01/24 09:07:11;;;;;;;18.10;15.45;;;3.90;99.90;;;;;;4946929;28;20204;-71
2023/01/24 09:09:38;;;;;;;17.95;15.23;;;3.90;99.90;;;;;;4945925;28;20214;-72
2023/01/24 09:12:07;;;;;;;17.58;14.10;;;3.90;99.90;;;;;;4945811;28;20717;-72
2023/01/24 09:14:34;;;;;;;15.23;13.45;;;3.90;99.90;;;;;;4950791;28;20196;-72
2023/01/24 09:17:01;;;;;;;17.73;14.65;;;3.90;99.90;;;;;;4945882;28;20205;-72
2023/01/24 09:19:28;;;;;;;16.13;14.05;;;3.90;99.90;;;;;;4938228;28;20571;-73
2023/01/24 09:21:56;;;;;;;15.32;13.25;;;4.00;99.90;;;;;;4939817;28;20296;-72
2023/01/24 09:24:23;;;;;;;15.70;13.60;;;4.00;99.90;;;;;;4944689;28;20204;-72
2023/01/24 09:26:51;;;;;;;14.65;12.85;;;4.00;99.90;;;;;;4943099;28;20211;-72
2023/01/24 09:29:19;;;;;;;14.63;12.95;;;4.00;99.90;;;;;;4940141;28;20200;-71
2023/01/24 09:31:47;;;;;;;16.00;13.38;;;4.00;99.90;;;;;;4940236;28;20248;-72
2023/01/24 09:34:15;;;;;;;14.18;12.73;;;4.00;99.90;;;;;;4940379;28;20649;-73
2023/01/24 09:36:42;;;;;;;17.20;13.43;;;4.00;99.90;;;;;;4944006;28;20259;-72
2023/01/24 09:39:09;;;;;;;16.58;13.95;;;4.10;99.90;;;;;;4947995;28;20200;-72
2023/01/24 09:41:49;;;;;;;15.00;12.93;;;4.10;99.90;;;;;;4947270;28;20207;-73
2023/01/24 09:44:26;;;;;;;23.85;17.88;;;4.20;99.90;;;;;;4949633;28;20276;-72
2023/01/24 09:46:55;;;;;;;19.48;16.98;;;4.20;99.90;;;;;;4948543;28;20250;-72
2023/01/24 09:49:31;;;;;;;19.58;15.88;;;4.30;99.90;;;;;;4945594;28;20676;-73
2023/01/24 09:51:59;;;;;;;16.13;13.05;;;4.30;99.90;;;;;;4941702;28;20258;-72
2023/01/24 09:54:51;;;;;;;13.88;11.70;;;4.30;99.90;;;;;;4944745;28;20207;-72
2023/01/24 09:57:26;;;;;;;15.85;12.75;;;4.30;99.90;;;;;;4941776;28;20797;-72
2023/01/24 09:59:59;;;;;;;14.18;12.30;;;4.30;99.90;;;;;;4943777;28;20258;-72
2023/01/24 10:02:28;;;;;;;14.18;12.02;;;4.30;99.90;;;;;;4950304;28;20227;-72
2023/01/24 10:04:55;;;;;;;15.02;13.35;;;4.30;99.90;;;;;;4947357;28;21927;-73
2023/01/24 10:07:56;;;;;;;15.82;13.63;;;4.30;99.90;;;;;;4948281;28;20768;-71
2023/01/24 10:10:40;;;;;;;14.43;12.38;;;4.40;99.90;;;;;;4926799;28;20310;-71
2023/01/24 10:13:20;;;;;;;13.73;11.98;;;4.40;99.90;;;;;;4943197;28;20220;-71
2023/01/24 10:15:56;;;;;;;15.63;13.48;;;4.40;99.90;;;;;;4946990;28;20772;-71
2023/01/24 10:18:42;;;;;;;13.50;12.05;;;4.40;99.90;;;;;;4945300;28;20632;-71
2023/01/24 10:21:30;;;;;;;14.25;12.27;;;4.70;99.90;;;;;;4942622;28;20201;-72
2023/01/24 10:24:00;;;;;;;17.10;12.98;;;4.50;99.90;;;;;;4950709;28;20639;-71
2023/01/24 10:26:34;;;;;;;15.20;13.00;;;4.50;99.90;;;;;;4950569;28;20239;-71
2023/01/24 10:29:10;;;;;;;14.20;12.57;;;4.60;99.90;;;;;;4951058;28;20294;-71
2023/01/24 10:31:44;;;;;;;14.05;12.40;;;4.60;99.90;;;;;;4948145;28;20196;-71
2023/01/24 10:34:15;;;;;;;14.07;11.90;;;4.60;99.90;;;;;;4946634;28;20614;-71
2023/01/24 10:36:46;;;;;;;14.13;11.75;;;4.50;99.90;;;;;;4945832;28;20231;-72
2023/01/24 10:39:13;;;;;;;14.88;12.73;;;4.50;99.90;;;;;;4947850;28;20697;-71
2023/01/24 10:41:41;;;;;;;13.27;11.88;;;4.50;99.90;;;;;;4949914;28;20192;-71
2023/01/24 10:44:15;;;;;;;14.88;12.80;;;4.50;99.90;;;;;;4943538;28;20251;-71
2023/01/24 10:47:03;;;;;;;14.38;12.60;;;4.50;99.90;;;;;;4941866;28;20208;-71
2023/01/24 10:49:36;;;;;;;14.13;11.70;;;4.60;99.90;;;;;;4948956;28;20197;-70
2023/01/24 10:52:14;;;;;;;17.30;13.50;;;4.60;99.90;;;;;;4950410;28;20217;-71
2023/01/24 10:54:44;;;;;;;16.85;14.23;;;4.60;99.90;;;;;;4947117;28;20204;-71
2023/01/24 10:57:19;;;;;;;20.10;16.65;;;4.70;99.90;;;;;;4952457;28;20260;-71
2023/01/24 10:59:47;;;;;;;21.63;16.50;;;4.70;99.90;;;;;;4951430;28;20732;-72
2023/01/24 11:02:22;;;;;;;18.17;15.43;;;4.80;99.90;;;;;;4946233;28;20303;-71
2023/01/24 11:04:59;;;;;;;14.75;13.23;;;4.80;99.90;;;;;;4947862;28;20201;-72
2023/01/24 11:07:32;;;;;;;14.10;12.63;;;4.80;99.90;;;;;;4952228;28;20212;-71
2023/01/24 11:10:01;;;;;;;12.27;10.98;;;4.90;99.90;;;;;;4949783;28;20204;-71
2023/01/24 11:12:29;;;;;;;12.43;10.85;;;4.90;99.90;;;;;;4952087;28;20236;-71
2023/01/24 11:14:56;;;;;;;16.55;12.23;;;5.00;99.90;;;;;;4944502;28;20237;-72
2023/01/24 11:17:33;;;;;;;12.23;10.93;;;5.00;99.90;;;;;;4940010;28;20386;-77
2023/01/24 11:20:08;;;;;;;12.20;10.85;;;5.00;99.90;;;;;;4940830;28;20236;-73
2023/01/24 11:22:36;;;;;;;13.38;11.50;;;5.00;99.90;;;;;;4943025;28;20676;-71
2023/01/24 11:25:13;;;;;;;13.02;11.20;;;5.00;99.90;;;;;;4948160;28;20203;-73
2023/01/24 11:27:46;;;;;;;14.18;12.73;;;5.10;99.90;;;;;;4944358;29;20262;-73
2023/01/24 11:30:17;;;;;;;15.35;12.00;;;5.10;99.90;;;;;;4947287;29;20263;-72
2023/01/24 11:32:59;;;;;;;12.57;11.27;;;5.10;99.90;;;;;;4943914;29;20279;-72
2023/01/24 11:35:30;;;;;;;11.95;10.57;;;5.20;99.90;;;;;;4947628;29;20200;-72
2023/01/24 11:38:22;;;;;;;13.95;12.65;;;5.20;99.90;;;;;;4939009;29;20611;-72
2023/01/24 11:41:03;;;;;;;13.23;11.65;;;5.20;99.90;;;;;;4942231;28;20775;-71
2023/01/24 11:43:53;;;;;;;11.27;10.18;;;5.20;99.90;;;;;;4941650;28;20260;-72
2023/01/24 11:46:44;;;;;;;11.98;10.40;;;5.20;99.90;;;;;;4914931;28;20295;-73
2023/01/24 11:49:35;;;;;;;12.35;10.10;;;5.20;99.90;;;;;;4946460;28;20676;-72
2023/01/24 11:52:16;;;;;;;11.90;9.95;;;5.20;99.90;;;;;;4945037;28;20216;-72
2023/01/24 11:54:53;;;;;;;11.98;10.73;;;5.20;99.90;;;;;;4944185;28;20257;-72
2023/01/24 11:57:34;;;;;;;12.38;10.43;;;5.20;99.90;;;;;;4935025;28;20240;-72
2023/01/24 12:00:18;;;;;;;10.93;9.80;;;5.20;99.90;;;;;;4944183;28;20593;-72
2023/01/24 12:03:03;;;;;;;11.60;9.85;;;5.20;99.90;;;;;;4936067;28;20243;-71
2023/01/24 12:05:48;;;;;;;10.82;9.75;;;5.20;99.90;;;;;;4937830;28;20200;-71
2023/01/24 12:08:30;;;;;;;10.27;9.18;;;5.30;99.90;;;;;;4945563;29;20204;-71
2023/01/24 12:11:02;;;;;;;10.10;9.10;;;5.30;99.90;;;;;;4946760;28;20196;-71
2023/01/24 12:13:39;;;;;;;10.10;9.15;;;5.20;99.90;;;;;;4950579;29;20224;-71
2023/01/24 12:16:22;;;;;;;10.98;9.15;;;5.20;99.90;;;;;;4951971;29;20220;-72
2023/01/24 12:19:09;;;;;;;10.63;9.63;;;5.20;99.90;;;;;;4947696;28;20197;-72
2023/01/24 12:21:38;;;;;;;10.65;9.55;;;5.20;99.90;;;;;;4938366;29;20229;-73
2023/01/24 12:24:11;;;;;;;11.25;10.05;;;5.20;99.90;;;;;;4942017;28;20209;-71
2023/01/24 12:26:42;;;;;;;12.45;10.35;;;5.20;99.90;;;;;;4951293;28;20200;-70
2023/01/24 12:29:15;;;;;;;10.98;9.90;;;5.20;99.90;;;;;;4936282;28;20208;-71
2023/01/24 12:31:48;;;;;;;10.10;9.10;;;5.10;99.90;;;;;;4943407;28;20226;-73
2023/01/24 12:34:31;;;;;;;10.45;9.45;;;5.20;99.90;;;;;;4941386;28;20196;-77
2023/01/24 12:37:05;;;;;;;11.20;10.07;;;5.20;99.90;;;;;;4940077;28;20274;-73
2023/01/24 12:39:40;;;;;;;9.73;8.82;;;5.10;99.90;;;;;;4946840;28;20218;-73
2023/01/24 12:42:14;;;;;;;9.90;8.95;;;5.20;99.90;;;;;;4947744;28;20223;-72
2023/01/24 12:44:47;;;;;;;9.60;8.60;;;5.20;99.90;;;;;;4942923;29;20196;-75
2023/01/24 12:47:25;;;;;;;9.13;8.15;;;5.30;99.90;;;;;;4948217;29;20256;-75
2023/01/24 12:50:02;;;;;;;9.27;8.38;;;5.20;99.90;;;;;;4945185;29;20287;-75
2023/01/24 12:52:39;;;;;;;9.38;8.38;;;5.30;99.90;;;;;;4947946;29;20295;-74
2023/01/24 12:55:12;;;;;;;10.43;9.43;;;5.30;99.90;;;;;;4938550;28;20301;-79
2023/01/24 12:57:43;;;;;;;9.65;8.75;;;5.30;99.90;;;;;;4949955;28;20535;-78
2023/01/24 13:00:17;;;;;;;10.68;9.60;;;5.20;99.90;;;;;;4948992;29;20198;-78
2023/01/24 13:03:04;;;;;;;9.57;8.63;;;5.30;99.90;;;;;;4942298;29;20598;-78
2023/01/24 13:05:44;;;;;;;10.32;9.25;;;5.30;99.90;;;;;;4930305;28;20717;-78
2023/01/24 13:08:27;;;;;;;9.85;8.85;;;5.30;99.90;;;;;;4943212;28;20244;-78
2023/01/24 13:11:07;;;;;;;9.18;8.25;;;5.20;99.90;;;;;;4946165;29;20204;-77
2023/01/24 13:13:39;;;;;;;11.13;8.73;;;5.20;99.90;;;;;;4944215;29;20560;-75
2023/01/24 13:16:26;;;;;;;9.68;8.68;;;5.10;99.90;;;;;;4928849;28;20200;-72
2023/01/24 13:19:03;;;;;;;8.57;7.78;;;5.10;99.90;;;;;;4940738;28;20207;-72
2023/01/24 13:21:39;;;;;;;10.95;8.60;;;5.00;99.90;;;;;;4946353;28;20216;-72
2023/01/24 13:24:24;;;;;;;10.77;9.48;;;5.00;99.90;;;;;;4942165;28;20201;-72
2023/01/24 13:27:03;;;;;;;11.02;9.07;;;4.90;99.90;;;;;;4941116;28;20199;-72
2023/01/24 13:29:43;;;;;;;12.05;10.15;;;4.90;99.90;;;;;;4940238;28;20216;-68
2023/01/24 13:32:13;;;;;;;10.35;8.60;;;5.20;99.90;;;;;;4930302;28;20331;-69